sensor_id;sensor_type;location;lat;lon;timestamp;P1;durP1;ratioP1;P2;durP2;ratioP2
32850;SDS011;19202;48.992;8.390;2022-12-10T00:05:37;24.05;;;10.70;;
32850;SDS011;19202;48.992;8.390;2022-12-10T00:11:16;23.77;;;10.88;;
32850;SDS011;19202;48.992;8.390;2022-12-10T00:16:55;21.85;;;9.88;;
32850;SDS011;19202;48.992;8.390;2022-12-10T00:22:33;24.35;;;10.88;;
32850;SDS011;19202;48.992;8.390;2022-12-10T00:28:11;23.27;;;11.32;;
32850;SDS011;19202;48.992;8.390;2022-12-10T00:33:49;21.30;;;9.68;;
32850;SDS011;19202;48.992;8.390;2022-12-10T00:39:28;21.70;;;10.13;;
32850;SDS011;19202;48.992;8.390;2022-12-10T00:45:06;27.02;;;10.98;;
32850;SDS011;19202;48.992;8.390;2022-12-10T00:50:53;21.20;;;10.52;;
32850;SDS011;19202;48.992;8.390;2022-12-10T00:56:35;23.92;;;11.02;;
32850;SDS011;19202;48.992;8.390;2022-12-10T01:02:15;22.27;;;10.32;;
32850;SDS011;19202;48.992;8.390;2022-12-10T01:07:53;28.50;;;11.15;;
32850;SDS011;19202;48.992;8.390;2022-12-10T01:13:31;25.95;;;10.52;;
32850;SDS011;19202;48.992;8.390;2022-12-10T01:19:09;26.88;;;12.32;;
32850;SDS011;19202;48.992;8.390;2022-12-10T01:24:47;20.38;;;9.85;;
32850;SDS011;19202;48.992;8.390;2022-12-10T01:30:25;24.48;;;10.85;;
32850;SDS011;19202;48.992;8.390;2022-12-10T01:36:25;21.95;;;10.50;;
32850;SDS011;19202;48.992;8.390;2022-12-10T01:42:04;20.02;;;10.18;;
32850;SDS011;19202;48.992;8.390;2022-12-10T01:47:43;19.75;;;9.68;;
32850;SDS011;19202;48.992;8.390;2022-12-10T01:53:21;26.13;;;10.80;;
32850;SDS011;19202;48.992;8.390;2022-12-10T01:58:58;24.10;;;10.55;;
32850;SDS011;19202;48.992;8.390;2022-12-10T02:21:51;21.75;;;10.05;;
32850;SDS011;19202;48.992;8.390;2022-12-10T02:27:40;24.75;;;10.20;;
32850;SDS011;19202;48.992;8.390;2022-12-10T02:33:25;23.48;;;10.07;;
32850;SDS011;19202;48.992;8.390;2022-12-10T02:39:06;26.70;;;11.02;;
32850;SDS011;19202;48.992;8.390;2022-12-10T02:44:47;24.92;;;10.70;;
32850;SDS011;19202;48.992;8.390;2022-12-10T02:50:27;23.42;;;11.75;;
32850;SDS011;19202;48.992;8.390;2022-12-10T02:56:13;18.90;;;10.10;;
32850;SDS011;19202;48.992;8.390;2022-12-10T03:02:10;21.23;;;11.10;;
32850;SDS011;19202;48.992;8.390;2022-12-10T03:08:09;24.17;;;11.68;;
32850;SDS011;19202;48.992;8.390;2022-12-10T03:19:40;23.35;;;11.75;;
32850;SDS011;19202;48.992;8.390;2022-12-10T03:25:22;24.08;;;12.70;;
32850;SDS011;19202;48.992;8.390;2022-12-10T03:31:02;22.30;;;12.38;;
32850;SDS011;19202;48.992;8.390;2022-12-10T03:36:41;25.30;;;11.35;;
32850;SDS011;19202;48.992;8.390;2022-12-10T03:42:19;21.58;;;11.27;;
32850;SDS011;19202;48.992;8.390;2022-12-10T03:47:58;24.90;;;11.80;;
32850;SDS011;19202;48.992;8.390;2022-12-10T03:53:35;25.98;;;11.93;;
32850;SDS011;19202;48.992;8.390;2022-12-10T03:59:13;31.05;;;12.70;;
32850;SDS011;19202;48.992;8.390;2022-12-10T04:04:51;28.13;;;13.02;;
32850;SDS011;19202;48.992;8.390;2022-12-10T04:10:29;30.13;;;13.23;;
32850;SDS011;19202;48.992;8.390;2022-12-10T04:16:07;26.45;;;12.18;;
32850;SDS011;19202;48.992;8.390;2022-12-10T04:22:04;22.73;;;12.23;;
32850;SDS011;19202;48.992;8.390;2022-12-10T04:28:01;25.00;;;11.75;;
32850;SDS011;19202;48.992;8.390;2022-12-10T04:33:39;25.85;;;13.65;;
32850;SDS011;19202;48.992;8.390;2022-12-10T04:39:17;27.05;;;13.02;;
32850;SDS011;19202;48.992;8.390;2022-12-10T04:44:56;25.63;;;12.55;;
32850;SDS011;19202;48.992;8.390;2022-12-10T04:50:34;30.98;;;12.05;;
32850;SDS011;19202;48.992;8.390;2022-12-10T04:56:12;36.38;;;14.25;;
32850;SDS011;19202;48.992;8.390;2022-12-10T05:01:50;27.33;;;12.63;;
32850;SDS011;19202;48.992;8.390;2022-12-10T05:07:28;54.15;;;16.75;;
32850;SDS011;19202;48.992;8.390;2022-12-10T05:13:06;31.83;;;14.38;;
32850;SDS011;19202;48.992;8.390;2022-12-10T05:18:44;32.42;;;11.80;;
32850;SDS011;19202;48.992;8.390;2022-12-10T05:24:22;46.75;;;15.85;;
32850;SDS011;19202;48.992;8.390;2022-12-10T05:30:00;37.38;;;15.13;;
32850;SDS011;19202;48.992;8.390;2022-12-10T05:35:38;27.58;;;13.65;;
32850;SDS011;19202;48.992;8.390;2022-12-10T05:41:17;33.88;;;14.48;;
32850;SDS011;19202;48.992;8.390;2022-12-10T05:46:57;34.90;;;12.25;;
32850;SDS011;19202;48.992;8.390;2022-12-10T05:52:35;29.17;;;14.25;;
32850;SDS011;19202;48.992;8.390;2022-12-10T05:58:13;35.22;;;14.07;;
32850;SDS011;19202;48.992;8.390;2022-12-10T06:03:52;29.38;;;13.85;;
32850;SDS011;19202;48.992;8.390;2022-12-10T06:09:30;31.58;;;14.23;;
32850;SDS011;19202;48.992;8.390;2022-12-10T06:15:08;29.23;;;13.55;;
32850;SDS011;19202;48.992;8.390;2022-12-10T06:20:46;27.60;;;13.15;;
32850;SDS011;19202;48.992;8.390;2022-12-10T06:26:25;32.80;;;15.88;;
32850;SDS011;19202;48.992;8.390;2022-12-10T06:32:03;31.92;;;15.38;;
32850;SDS011;19202;48.992;8.390;2022-12-10T06:37:41;33.05;;;14.85;;
32850;SDS011;19202;48.992;8.390;2022-12-10T06:43:19;35.88;;;14.75;;
32850;SDS011;19202;48.992;8.390;2022-12-10T06:48:58;34.88;;;15.68;;
32850;SDS011;19202;48.992;8.390;2022-12-10T06:54:36;37.42;;;15.55;;
32850;SDS011;19202;48.992;8.390;2022-12-10T07:00:14;32.33;;;14.93;;
32850;SDS011;19202;48.992;8.390;2022-12-10T07:05:56;37.10;;;16.17;;
32850;SDS011;19202;48.992;8.390;2022-12-10T07:11:35;31.55;;;14.93;;
32850;SDS011;19202;48.992;8.390;2022-12-10T07:17:13;37.65;;;14.75;;
32850;SDS011;19202;48.992;8.390;2022-12-10T07:22:52;34.92;;;14.75;;
32850;SDS011;19202;48.992;8.390;2022-12-10T07:28:30;42.53;;;15.98;;
32850;SDS011;19202;48.992;8.390;2022-12-10T07:34:08;33.10;;;15.40;;
32850;SDS011;19202;48.992;8.390;2022-12-10T07:39:47;35.42;;;16.27;;
32850;SDS011;19202;48.992;8.390;2022-12-10T07:45:25;29.90;;;13.80;;
32850;SDS011;19202;48.992;8.390;2022-12-10T07:51:03;32.38;;;14.05;;
32850;SDS011;19202;48.992;8.390;2022-12-10T07:56:42;31.35;;;13.25;;
32850;SDS011;19202;48.992;8.390;2022-12-10T08:02:20;35.08;;;15.82;;
32850;SDS011;19202;48.992;8.390;2022-12-10T08:07:58;29.73;;;14.00;;
32850;SDS011;19202;48.992;8.390;2022-12-10T08:13:36;31.65;;;14.90;;
32850;SDS011;19202;48.992;8.390;2022-12-10T08:19:15;26.83;;;12.93;;
32850;SDS011;19202;48.992;8.390;2022-12-10T08:24:53;33.92;;;13.93;;
32850;SDS011;19202;48.992;8.390;2022-12-10T08:30:31;30.42;;;14.50;;
32850;SDS011;19202;48.992;8.390;2022-12-10T08:36:10;32.00;;;14.50;;
32850;SDS011;19202;48.992;8.390;2022-12-10T08:41:49;28.50;;;13.23;;
32850;SDS011;19202;48.992;8.390;2022-12-10T08:47:27;30.77;;;14.23;;
32850;SDS011;19202;48.992;8.390;2022-12-10T08:53:06;30.02;;;14.70;;
32850;SDS011;19202;48.992;8.390;2022-12-10T08:58:44;26.73;;;14.77;;
32850;SDS011;19202;48.992;8.390;2022-12-10T09:04:22;27.85;;;14.23;;
32850;SDS011;19202;48.992;8.390;2022-12-10T09:10:00;28.05;;;14.48;;
32850;SDS011;19202;48.992;8.390;2022-12-10T09:15:38;30.50;;;13.77;;
32850;SDS011;19202;48.992;8.390;2022-12-10T09:21:16;26.40;;;12.98;;
32850;SDS011;19202;48.992;8.390;2022-12-10T09:26:55;27.77;;;12.85;;
32850;SDS011;19202;48.992;8.390;2022-12-10T09:32:33;30.83;;;14.27;;
32850;SDS011;19202;48.992;8.390;2022-12-10T09:38:11;22.38;;;11.88;;
32850;SDS011;19202;48.992;8.390;2022-12-10T09:43:58;24.55;;;12.48;;
32850;SDS011;19202;48.992;8.390;2022-12-10T09:55:38;24.55;;;13.18;;
32850;SDS011;19202;48.992;8.390;2022-12-10T10:01:35;24.52;;;13.57;;
32850;SDS011;19202;48.992;8.390;2022-12-10T10:07:17;30.70;;;14.77;;
32850;SDS011;19202;48.992;8.390;2022-12-10T10:13:10;35.05;;;15.82;;
32850;SDS011;19202;48.992;8.390;2022-12-10T10:18:55;27.13;;;12.52;;
32850;SDS011;19202;48.992;8.390;2022-12-10T10:24:40;31.13;;;13.15;;
32850;SDS011;19202;48.992;8.390;2022-12-10T10:30:21;34.67;;;12.88;;
32850;SDS011;19202;48.992;8.390;2022-12-10T10:35:59;27.10;;;10.32;;
32850;SDS011;19202;48.992;8.390;2022-12-10T10:41:38;26.77;;;11.45;;
32850;SDS011;19202;48.992;8.390;2022-12-10T10:47:29;52.38;;;16.42;;
32850;SDS011;19202;48.992;8.390;2022-12-10T10:53:29;25.23;;;11.63;;
32850;SDS011;19202;48.992;8.390;2022-12-10T11:04:55;29.77;;;11.15;;
32850;SDS011;19202;48.992;8.390;2022-12-10T11:10:37;45.42;;;22.13;;
32850;SDS011;19202;48.992;8.390;2022-12-10T11:16:28;27.70;;;13.35;;
32850;SDS011;19202;48.992;8.390;2022-12-10T11:22:15;22.05;;;11.30;;
32850;SDS011;19202;48.992;8.390;2022-12-10T11:28:02;26.55;;;12.77;;
32850;SDS011;19202;48.992;8.390;2022-12-10T11:51:44;23.17;;;10.73;;
32850;SDS011;19202;48.992;8.390;2022-12-10T11:57:41;22.75;;;11.57;;
32850;SDS011;19202;48.992;8.390;2022-12-10T12:03:43;18.05;;;9.90;;
32850;SDS011;19202;48.992;8.390;2022-12-10T12:09:52;19.55;;;10.63;;
32850;SDS011;19202;48.992;8.390;2022-12-10T12:15:46;20.20;;;9.73;;
32850;SDS011;19202;48.992;8.390;2022-12-10T12:21:27;22.98;;;10.85;;
32850;SDS011;19202;48.992;8.390;2022-12-10T12:27:09;19.85;;;10.13;;
32850;SDS011;19202;48.992;8.390;2022-12-10T12:33:01;21.88;;;10.27;;
32850;SDS011;19202;48.992;8.390;2022-12-10T12:50:34;18.08;;;9.27;;
32850;SDS011;19202;48.992;8.390;2022-12-10T13:02:21;18.10;;;8.90;;
32850;SDS011;19202;48.992;8.390;2022-12-10T13:14:53;16.83;;;9.00;;
32850;SDS011;19202;48.992;8.390;2022-12-10T13:26:17;19.38;;;9.80;;
32850;SDS011;19202;48.992;8.390;2022-12-10T13:32:02;17.70;;;9.07;;
32850;SDS011;19202;48.992;8.390;2022-12-10T13:49:34;21.70;;;9.73;;
32850;SDS011;19202;48.992;8.390;2022-12-10T13:55:32;17.58;;;9.82;;
32850;SDS011;19202;48.992;8.390;2022-12-10T14:01:30;16.08;;;7.90;;
32850;SDS011;19202;48.992;8.390;2022-12-10T14:07:19;16.23;;;8.35;;
32850;SDS011;19202;48.992;8.390;2022-12-10T14:12:58;13.20;;;7.53;;
32850;SDS011;19202;48.992;8.390;2022-12-10T14:18:38;16.65;;;9.40;;
32850;SDS011;19202;48.992;8.390;2022-12-10T14:24:29;12.75;;;7.30;;
32850;SDS011;19202;48.992;8.390;2022-12-10T14:30:15;16.02;;;7.85;;
32850;SDS011;19202;48.992;8.390;2022-12-10T14:35:57;15.77;;;7.63;;
32850;SDS011;19202;48.992;8.390;2022-12-10T14:41:36;15.93;;;8.45;;
32850;SDS011;19202;48.992;8.390;2022-12-10T14:47:18;13.90;;;8.20;;
32850;SDS011;19202;48.992;8.390;2022-12-10T14:52:57;16.60;;;9.07;;
32850;SDS011;19202;48.992;8.390;2022-12-10T14:58:37;13.73;;;8.02;;
32850;SDS011;19202;48.992;8.390;2022-12-10T15:04:19;13.50;;;7.57;;
32850;SDS011;19202;48.992;8.390;2022-12-10T15:09:58;12.95;;;7.15;;
32850;SDS011;19202;48.992;8.390;2022-12-10T15:15:37;18.17;;;7.82;;
32850;SDS011;19202;48.992;8.390;2022-12-10T15:21:21;20.52;;;9.55;;
32850;SDS011;19202;48.992;8.390;2022-12-10T15:27:00;28.00;;;11.35;;
32850;SDS011;19202;48.992;8.390;2022-12-10T15:32:39;19.05;;;9.68;;
32850;SDS011;19202;48.992;8.390;2022-12-10T15:38:17;27.42;;;12.93;;
32850;SDS011;19202;48.992;8.390;2022-12-10T15:43:57;25.67;;;12.30;;
32850;SDS011;19202;48.992;8.390;2022-12-10T15:49:38;26.20;;;11.10;;
32850;SDS011;19202;48.992;8.390;2022-12-10T15:55:16;16.17;;;7.95;;
32850;SDS011;19202;48.992;8.390;2022-12-10T16:00:54;21.02;;;9.10;;
32850;SDS011;19202;48.992;8.390;2022-12-10T16:06:32;22.38;;;9.48;;
32850;SDS011;19202;48.992;8.390;2022-12-10T16:12:11;19.40;;;9.63;;
32850;SDS011;19202;48.992;8.390;2022-12-10T16:17:50;19.08;;;9.05;;
32850;SDS011;19202;48.992;8.390;2022-12-10T16:23:29;28.20;;;11.23;;
32850;SDS011;19202;48.992;8.390;2022-12-10T16:29:09;19.90;;;8.85;;
32850;SDS011;19202;48.992;8.390;2022-12-10T16:34:47;19.90;;;9.35;;
32850;SDS011;19202;48.992;8.390;2022-12-10T16:40:26;23.20;;;9.88;;
32850;SDS011;19202;48.992;8.390;2022-12-10T16:46:05;26.17;;;10.48;;
32850;SDS011;19202;48.992;8.390;2022-12-10T16:51:43;20.88;;;9.43;;
32850;SDS011;19202;48.992;8.390;2022-12-10T16:57:21;18.92;;;8.90;;
32850;SDS011;19202;48.992;8.390;2022-12-10T17:02:59;21.52;;;9.52;;
32850;SDS011;19202;48.992;8.390;2022-12-10T17:08:44;23.48;;;10.15;;
32850;SDS011;19202;48.992;8.390;2022-12-10T17:14:26;16.67;;;8.73;;
32850;SDS011;19202;48.992;8.390;2022-12-10T17:20:25;16.93;;;8.80;;
32850;SDS011;19202;48.992;8.390;2022-12-10T17:26:03;17.10;;;8.65;;
32850;SDS011;19202;48.992;8.390;2022-12-10T17:31:42;20.23;;;8.82;;
32850;SDS011;19202;48.992;8.390;2022-12-10T17:37:21;17.65;;;7.95;;
32850;SDS011;19202;48.992;8.390;2022-12-10T17:43:00;18.25;;;8.68;;
32850;SDS011;19202;48.992;8.390;2022-12-10T17:48:38;22.25;;;9.52;;
32850;SDS011;19202;48.992;8.390;2022-12-10T17:54:16;18.40;;;8.63;;
32850;SDS011;19202;48.992;8.390;2022-12-10T17:59:54;22.80;;;10.07;;
32850;SDS011;19202;48.992;8.390;2022-12-10T18:05:32;29.55;;;11.95;;
32850;SDS011;19202;48.992;8.390;2022-12-10T18:11:11;27.80;;;11.95;;
32850;SDS011;19202;48.992;8.390;2022-12-10T18:16:51;29.42;;;11.85;;
32850;SDS011;19202;48.992;8.390;2022-12-10T18:22:29;27.58;;;11.80;;
32850;SDS011;19202;48.992;8.390;2022-12-10T18:28:40;28.35;;;11.80;;
32850;SDS011;19202;48.992;8.390;2022-12-10T18:34:15;26.45;;;11.10;;
32850;SDS011;19202;48.992;8.390;2022-12-10T18:39:53;27.02;;;11.80;;
32850;SDS011;19202;48.992;8.390;2022-12-10T18:45:31;31.55;;;12.63;;
32850;SDS011;19202;48.992;8.390;2022-12-10T18:51:09;45.67;;;18.30;;
32850;SDS011;19202;48.992;8.390;2022-12-10T18:56:51;30.55;;;13.02;;
32850;SDS011;19202;48.992;8.390;2022-12-10T19:02:29;45.00;;;18.45;;
32850;SDS011;19202;48.992;8.390;2022-12-10T19:08:08;36.75;;;16.30;;
32850;SDS011;19202;48.992;8.390;2022-12-10T19:13:49;33.58;;;15.80;;
32850;SDS011;19202;48.992;8.390;2022-12-10T19:19:28;25.42;;;12.88;;
32850;SDS011;19202;48.992;8.390;2022-12-10T19:25:06;30.98;;;14.73;;
32850;SDS011;19202;48.992;8.390;2022-12-10T19:30:44;30.75;;;13.77;;
32850;SDS011;19202;48.992;8.390;2022-12-10T19:36:23;39.38;;;16.27;;
32850;SDS011;19202;48.992;8.390;2022-12-10T19:42:03;31.90;;;14.40;;
32850;SDS011;19202;48.992;8.390;2022-12-10T19:47:41;33.15;;;15.05;;
32850;SDS011;19202;48.992;8.390;2022-12-10T19:53:19;30.88;;;14.90;;
32850;SDS011;19202;48.992;8.390;2022-12-10T19:58:58;29.80;;;14.98;;
32850;SDS011;19202;48.992;8.390;2022-12-10T20:04:38;26.52;;;13.50;;
32850;SDS011;19202;48.992;8.390;2022-12-10T20:10:20;39.30;;;16.70;;
32850;SDS011;19202;48.992;8.390;2022-12-10T20:16:00;31.15;;;13.50;;
32850;SDS011;19202;48.992;8.390;2022-12-10T20:21:39;47.83;;;17.60;;
32850;SDS011;19202;48.992;8.390;2022-12-10T20:27:17;30.48;;;14.80;;
32850;SDS011;19202;48.992;8.390;2022-12-10T20:32:55;40.67;;;17.45;;
32850;SDS011;19202;48.992;8.390;2022-12-10T20:38:33;47.67;;;17.95;;
32850;SDS011;19202;48.992;8.390;2022-12-10T20:44:11;40.28;;;16.98;;
32850;SDS011;19202;48.992;8.390;2022-12-10T20:49:49;39.58;;;16.95;;
32850;SDS011;19202;48.992;8.390;2022-12-10T20:55:27;39.45;;;17.40;;
32850;SDS011;19202;48.992;8.390;2022-12-10T21:01:05;35.00;;;16.80;;
32850;SDS011;19202;48.992;8.390;2022-12-10T21:06:43;37.63;;;18.83;;
32850;SDS011;19202;48.992;8.390;2022-12-10T21:12:21;34.15;;;16.95;;
32850;SDS011;19202;48.992;8.390;2022-12-10T21:17:59;30.52;;;15.18;;
32850;SDS011;19202;48.992;8.390;2022-12-10T21:23:37;38.75;;;17.23;;
32850;SDS011;19202;48.992;8.390;2022-12-10T21:29:16;31.30;;;15.60;;
32850;SDS011;19202;48.992;8.390;2022-12-10T21:34:54;34.55;;;14.77;;
32850;SDS011;19202;48.992;8.390;2022-12-10T21:40:32;44.08;;;16.67;;
32850;SDS011;19202;48.992;8.390;2022-12-10T21:46:10;31.35;;;15.73;;
32850;SDS011;19202;48.992;8.390;2022-12-10T21:51:48;30.65;;;15.82;;
32850;SDS011;19202;48.992;8.390;2022-12-10T21:57:26;31.00;;;15.98;;
32850;SDS011;19202;48.992;8.390;2022-12-10T22:03:04;29.63;;;15.52;;
32850;SDS011;19202;48.992;8.390;2022-12-10T22:08:43;34.15;;;17.48;;
32850;SDS011;19202;48.992;8.390;2022-12-10T22:14:20;31.65;;;15.65;;
32850;SDS011;19202;48.992;8.390;2022-12-10T22:19:58;31.92;;;16.88;;
32850;SDS011;19202;48.992;8.390;2022-12-10T22:25:38;39.10;;;19.45;;
32850;SDS011;19202;48.992;8.390;2022-12-10T22:31:18;29.27;;;16.83;;
32850;SDS011;19202;48.992;8.390;2022-12-10T22:36:56;30.67;;;17.40;;
32850;SDS011;19202;48.992;8.390;2022-12-10T22:42:35;31.23;;;16.83;;
32850;SDS011;19202;48.992;8.390;2022-12-10T22:48:16;32.58;;;17.73;;
32850;SDS011;19202;48.992;8.390;2022-12-10T22:53:54;32.72;;;17.60;;
32850;SDS011;19202;48.992;8.390;2022-12-10T22:59:33;33.45;;;18.40;;
32850;SDS011;19202;48.992;8.390;2022-12-10T23:05:13;27.42;;;16.83;;
32850;SDS011;19202;48.992;8.390;2022-12-10T23:10:51;37.60;;;18.75;;
32850;SDS011;19202;48.992;8.390;2022-12-10T23:16:31;38.70;;;20.45;;
32850;SDS011;19202;48.992;8.390;2022-12-10T23:22:09;37.42;;;19.80;;
32850;SDS011;19202;48.992;8.390;2022-12-10T23:27:47;36.90;;;20.60;;
32850;SDS011;19202;48.992;8.390;2022-12-10T23:33:25;32.78;;;20.30;;
32850;SDS011;19202;48.992;8.390;2022-12-10T23:39:03;36.78;;;19.75;;
32850;SDS011;19202;48.992;8.390;2022-12-10T23:44:42;42.75;;;21.65;;
32850;SDS011;19202;48.992;8.390;2022-12-10T23:50:20;36.72;;;19.23;;
32850;SDS011;19202;48.992;8.390;2022-12-10T23:55:58;37.60;;;20.20;;
